Terminal Aerodrome Forecast
Issued by NWS Wilmington, OH

Home | Current Version | Previous Version | Text Only | Print | Product List | Glossary On
Versions: 1 2 3 4 5 6 7 8 9 10 11 12 13 14 15 16
022
FTUS41 KILN 281744
TAFILN
TAF
KILN 281744Z 2818/2918 15008KT P6SM VCSH OVC100
     FM282300 10007KT P6SM VCTS OVC060CB
     FM290100 09007KT 5SM -SHRA BR VCTS OVC050CB
      TEMPO 2901/2903 2SM -TSRA BR OVC025CB
     FM290400 13008KT 5SM SHRA BR VCTS OVC050CB
     FM290900 17006KT 5SM -SHRA BR OVC025
     FM291200 19008KT P6SM OVC015=

USA.gov is the U.S. government's official web portal to all federal, state and local government web resources and services.